createdAt,value
2023-03-21T00:00:23.359Z,8.57
2023-03-21T00:02:49.765Z,8.13
2023-03-21T00:05:16.466Z,8.05
2023-03-21T00:07:42.978Z,8.30
2023-03-21T00:10:16.519Z,8.38
2023-03-21T00:12:44.636Z,8.18
2023-03-21T00:15:12.946Z,7.78
2023-03-21T00:17:39.782Z,8.30
2023-03-21T00:20:15.279Z,8.57
2023-03-21T00:22:42.488Z,8.40
2023-03-21T00:25:10.495Z,8.30
2023-03-21T00:27:53.323Z,8.40
2023-03-21T00:30:24.018Z,8.65
2023-03-21T00:32:56.542Z,10.35
2023-03-21T00:35:54.112Z,10.40
2023-03-21T00:38:10.626Z,10.25
2023-03-21T00:40:43.722Z,10.45
2023-03-21T00:43:17.521Z,11.25
2023-03-21T00:45:45.325Z,12.15
2023-03-21T00:48:12.334Z,10.75
2023-03-21T00:50:39.409Z,11.50
2023-03-21T00:53:06.888Z,11.77
2023-03-21T00:55:33.712Z,11.45
2023-03-21T00:58:02.428Z,12.45
2023-03-21T01:00:30.048Z,12.43
2023-03-21T01:03:04.246Z,12.65
2023-03-21T01:05:57.966Z,12.88
2023-03-21T01:08:31.143Z,12.48
2023-03-21T01:11:06.869Z,12.07
2023-03-21T01:13:36.383Z,12.85
2023-03-21T01:16:05.730Z,12.70
2023-03-21T01:18:33.265Z,13.88
2023-03-21T01:21:01.218Z,14.18
2023-03-21T01:23:29.552Z,13.80
2023-03-21T01:25:57.250Z,13.98
2023-03-21T01:28:27.941Z,13.55
2023-03-21T01:30:54.611Z,13.00
2023-03-21T01:33:22.323Z,14.10
2023-03-21T01:35:57.449Z,13.93
2023-03-21T01:38:30.022Z,14.85
2023-03-21T01:40:56.422Z,13.80
2023-03-21T01:43:28.609Z,13.77
2023-03-21T01:46:10.589Z,13.75
2023-03-21T01:48:41.963Z,14.90
2023-03-21T01:51:11.476Z,14.48
2023-03-21T01:53:39.427Z,14.48
2023-03-21T01:56:24.672Z,14.65
2023-03-21T01:58:55.147Z,14.32
2023-03-21T02:01:22.989Z,14.18
2023-03-21T02:03:51.664Z,14.55
2023-03-21T02:06:31.714Z,14.43
2023-03-21T02:09:05.117Z,14.50
2023-03-21T02:11:32.260Z,13.88
2023-03-21T02:14:06.154Z,14.05
2023-03-21T02:17:01.936Z,15.02
2023-03-21T02:19:52.745Z,14.15
2023-03-21T02:23:12.964Z,13.77
2023-03-21T02:25:58.217Z,13.63
2023-03-21T02:28:48.562Z,14.10
2023-03-21T02:31:36.313Z,14.82
2023-03-21T02:34:37.529Z,13.80
2023-03-21T02:37:11.371Z,13.13
2023-03-21T02:39:56.174Z,13.95
2023-03-21T02:42:32.860Z,13.85
2023-03-21T02:45:11.280Z,13.95
2023-03-21T02:47:52.689Z,13.77
2023-03-21T02:50:26.506Z,13.98
2023-03-21T02:52:54.310Z,14.18
2023-03-21T02:55:28.197Z,14.43
2023-03-21T02:57:59.230Z,14.68
2023-03-21T03:00:32.102Z,14.70
2023-03-21T03:03:08.806Z,14.77
2023-03-21T03:05:43.474Z,14.70
2023-03-21T03:08:41.292Z,14.43
2023-03-21T03:11:31.385Z,15.15
2023-03-21T03:14:44.263Z,15.75
2023-03-21T03:17:37.257Z,15.57
2023-03-21T03:20:32.397Z,15.75
2023-03-21T03:23:10.821Z,15.82
2023-03-21T03:25:52.437Z,16.02
2023-03-21T03:31:05.426Z,16.13
2023-03-21T03:33:38.372Z,17.05
2023-03-21T03:36:09.349Z,16.55
2023-03-21T03:38:38.834Z,16.70
2023-03-21T03:41:12.762Z,17.83
2023-03-21T03:43:46.882Z,17.50
2023-03-21T03:46:19.970Z,17.13
2023-03-21T03:48:54.366Z,16.25
2023-03-21T03:51:32.654Z,17.25
2023-03-21T03:54:04.937Z,18.02
2023-03-21T03:56:31.735Z,17.08
2023-03-21T03:58:58.145Z,17.52
2023-03-21T04:01:24.787Z,16.33
2023-03-21T04:03:58.522Z,17.55
2023-03-21T04:06:33.442Z,17.52
2023-03-21T04:09:03.498Z,17.40
2023-03-21T04:11:32.002Z,17.08
2023-03-21T04:13:58.382Z,17.52
2023-03-21T04:16:25.489Z,18.90
2023-03-21T04:18:52.415Z,17.88
2023-03-21T04:21:18.878Z,18.00
2023-03-21T04:23:45.427Z,17.65
2023-03-21T04:26:11.914Z,17.15
2023-03-21T04:28:39.748Z,17.48
2023-03-21T04:31:22.678Z,18.40
2023-03-21T04:33:51.302Z,17.20
2023-03-21T04:36:27.415Z,18.17
2023-03-21T04:38:53.920Z,17.23
2023-03-21T04:41:20.845Z,17.27
2023-03-21T04:43:47.431Z,17.60
2023-03-21T04:46:13.886Z,18.20
2023-03-21T04:48:40.534Z,17.13
2023-03-21T04:51:06.916Z,17.63
2023-03-21T04:53:33.264Z,17.27
2023-03-21T04:56:00.619Z,17.67
2023-03-21T04:58:27.405Z,17.25
2023-03-21T05:00:53.801Z,17.92
2023-03-21T05:03:21.856Z,14.82
2023-03-21T05:05:49.093Z,13.80
2023-03-21T05:08:15.837Z,14.40
2023-03-21T05:10:43.260Z,12.77
2023-03-21T05:13:09.641Z,7.93
2023-03-21T05:15:36.176Z,7.30
2023-03-21T05:18:11.311Z,7.25
2023-03-21T05:20:44.681Z,6.70
2023-03-21T05:23:11.620Z,6.60
2023-03-21T05:25:40.176Z,5.68
2023-03-21T05:28:07.779Z,5.93
2023-03-21T05:30:34.155Z,5.93
2023-03-21T05:33:00.520Z,6.22
2023-03-21T05:35:27.159Z,6.35
2023-03-21T05:37:53.539Z,6.03
2023-03-21T05:40:20.315Z,6.68
2023-03-21T05:42:47.799Z,6.53
2023-03-21T05:45:15.664Z,6.40
2023-03-21T05:47:42.040Z,6.32
2023-03-21T05:50:09.465Z,6.10
2023-03-21T05:52:36.022Z,6.28
2023-03-21T05:55:03.208Z,6.45
2023-03-21T05:57:29.646Z,5.95
2023-03-21T05:59:56.040Z,6.43
2023-03-21T06:02:22.456Z,6.32
2023-03-21T06:04:48.873Z,6.30
2023-03-21T06:07:15.289Z,5.70
2023-03-21T06:09:41.663Z,6.38
2023-03-21T06:12:08.277Z,6.35
2023-03-21T06:14:34.610Z,6.43
2023-03-21T06:17:01.133Z,6.32
2023-03-21T06:19:27.517Z,6.03
2023-03-21T06:21:53.858Z,6.78
2023-03-21T06:24:21.466Z,6.22
2023-03-21T06:26:48.329Z,6.38
2023-03-21T06:29:14.945Z,6.20
2023-03-21T06:31:41.440Z,6.05
2023-03-21T06:34:07.884Z,6.28
2023-03-21T06:36:34.227Z,6.40
2023-03-21T06:39:00.582Z,6.57
2023-03-21T06:41:26.992Z,6.70
2023-03-21T06:43:53.356Z,6.68
2023-03-21T06:46:19.738Z,6.35
2023-03-21T06:48:46.209Z,6.30
2023-03-21T06:51:14.458Z,6.50
2023-03-21T06:53:41.466Z,6.10
2023-03-21T06:56:09.338Z,6.25
2023-03-21T06:58:36.148Z,5.78
2023-03-21T07:01:03.933Z,5.75
2023-03-21T07:03:31.543Z,5.53
2023-03-21T07:05:57.976Z,5.55
2023-03-21T07:08:24.530Z,5.72
2023-03-21T07:10:55.209Z,5.70
2023-03-21T07:13:21.559Z,5.60
2023-03-21T07:15:47.907Z,5.32
2023-03-21T07:18:14.274Z,5.95
2023-03-21T07:20:40.614Z,6.00
2023-03-21T07:23:07.148Z,5.60
2023-03-21T07:25:34.448Z,6.20
2023-03-21T07:28:01.067Z,6.45
2023-03-21T07:30:27.634Z,6.28
2023-03-21T07:32:54.689Z,6.68
2023-03-21T07:35:21.148Z,6.85
2023-03-21T07:37:47.489Z,7.10
2023-03-21T07:40:14.029Z,6.22
2023-03-21T07:42:41.242Z,6.25
2023-03-21T07:45:09.421Z,6.55
2023-03-21T07:47:36.561Z,7.00
2023-03-21T07:50:04.597Z,7.10
2023-03-21T07:52:31.671Z,6.00
2023-03-21T07:54:58.058Z,6.65
2023-03-21T07:57:24.495Z,6.18
2023-03-21T07:59:50.835Z,6.50
2023-03-21T08:02:17.980Z,8.60
2023-03-21T08:04:44.690Z,6.28
2023-03-21T08:07:11.775Z,5.63
2023-03-21T08:09:38.296Z,6.28
2023-03-21T08:12:08.155Z,6.32
2023-03-21T08:14:36.598Z,5.78
2023-03-21T08:17:04.772Z,5.53
2023-03-21T08:19:31.169Z,5.63
2023-03-21T08:21:59.745Z,6.07
2023-03-21T08:24:28.156Z,6.03
2023-03-21T08:26:54.693Z,5.63
2023-03-21T08:29:21.701Z,12.38
2023-03-21T08:31:48.066Z,32.95
2023-03-21T08:34:14.422Z,5.55
2023-03-21T08:36:40.921Z,5.57
2023-03-21T08:39:07.301Z,5.22
2023-03-21T08:41:37.546Z,5.47
2023-03-21T08:44:06.326Z,6.00
2023-03-21T08:46:33.024Z,5.72
2023-03-21T08:48:59.420Z,5.53
2023-03-21T08:51:25.894Z,5.60
2023-03-21T08:53:52.290Z,5.97
2023-03-21T08:56:18.852Z,6.60
2023-03-21T08:58:45.594Z,6.25
2023-03-21T09:01:15.582Z,7.05
2023-03-21T09:03:42.844Z,6.47
2023-03-21T09:06:12.133Z,6.43
2023-03-21T09:08:38.933Z,5.07
2023-03-21T09:11:05.900Z,5.38
2023-03-21T09:13:32.292Z,5.20
2023-03-21T09:16:01.258Z,5.80
2023-03-21T09:18:47.549Z,5.63
2023-03-21T09:21:16.655Z,4.38
2023-03-21T09:23:44.833Z,4.35
2023-03-21T09:26:12.527Z,4.25
2023-03-21T09:28:40.432Z,4.35
2023-03-21T09:31:11.613Z,4.20
2023-03-21T09:33:40.340Z,4.25
2023-03-21T09:36:11.668Z,4.03
2023-03-21T09:38:39.483Z,3.83
2023-03-21T09:41:17.100Z,3.50
2023-03-21T09:44:13.050Z,3.88
2023-03-21T09:46:54.882Z,3.00
2023-03-21T09:49:30.987Z,3.42
2023-03-21T09:52:05.447Z,3.97
2023-03-21T09:54:38.000Z,3.55
2023-03-21T09:57:20.573Z,3.60
2023-03-21T09:59:49.544Z,6.65
2023-03-21T10:02:47.188Z,4.72
2023-03-21T10:05:19.821Z,3.55
2023-03-21T10:07:54.378Z,3.30
2023-03-21T10:10:49.523Z,3.65
2023-03-21T10:13:40.543Z,3.80
2023-03-21T10:16:17.311Z,3.20
2023-03-21T10:18:44.852Z,3.17
2023-03-21T10:21:37.316Z,3.53
2023-03-21T10:24:04.097Z,3.20
2023-03-21T10:26:30.883Z,2.88
2023-03-21T10:29:00.633Z,3.42
2023-03-21T10:31:30.091Z,3.05
2023-03-21T10:34:02.476Z,3.47
2023-03-21T10:36:33.162Z,3.10
2023-03-21T10:39:06.117Z,2.70
2023-03-21T10:41:34.040Z,2.53
2023-03-21T10:44:14.500Z,2.53
2023-03-21T10:47:10.163Z,2.42
2023-03-21T10:49:56.548Z,2.50
2023-03-21T10:55:06.803Z,2.90
2023-03-21T10:57:33.477Z,2.80
2023-03-21T11:00:11.304Z,2.97
2023-03-21T11:02:38.195Z,3.20
2023-03-21T11:05:07.917Z,3.00
2023-03-21T11:07:37.009Z,3.10
2023-03-21T11:10:29.008Z,2.90
2023-03-21T11:12:57.619Z,2.67
2023-03-21T11:15:33.206Z,2.53
2023-03-21T11:18:13.070Z,2.80
2023-03-21T11:20:48.160Z,2.20
2023-03-21T11:23:14.591Z,6.43
2023-03-21T11:25:42.013Z,9.70
2023-03-21T11:28:22.212Z,3.03
2023-03-21T11:30:54.826Z,2.60
2023-03-21T11:33:27.027Z,2.63
2023-03-21T11:36:06.948Z,2.97
2023-03-21T11:38:38.457Z,3.20
2023-03-21T11:41:06.399Z,3.00
2023-03-21T11:43:39.427Z,2.58
2023-03-21T11:46:13.804Z,2.70
2023-03-21T11:48:50.321Z,2.83
2023-03-21T11:51:26.912Z,2.75
2023-03-21T11:54:19.576Z,2.67
2023-03-21T11:57:07.431Z,2.70
2023-03-21T12:02:37.153Z,2.80
2023-03-21T12:05:21.518Z,2.95
2023-03-21T12:08:13.523Z,3.78
2023-03-21T12:10:58.451Z,4.60
2023-03-21T12:14:02.495Z,2.95
2023-03-21T12:16:31.946Z,2.85
2023-03-21T12:19:34.392Z,3.33
2023-03-21T12:22:24.894Z,3.40
2023-03-21T12:24:51.207Z,2.63
2023-03-21T12:27:37.534Z,3.00
2023-03-21T12:30:11.637Z,2.97
2023-03-21T12:32:41.100Z,3.00
2023-03-21T12:35:20.105Z,3.47
2023-03-21T12:38:05.419Z,3.40
2023-03-21T12:40:46.753Z,2.90
2023-03-21T12:43:30.989Z,3.42
2023-03-21T12:46:04.241Z,3.05
2023-03-21T12:48:41.020Z,3.10
2023-03-21T12:51:14.201Z,3.25
2023-03-21T12:53:51.549Z,3.67
2023-03-21T12:56:32.066Z,3.45
2023-03-21T12:59:08.730Z,3.15
2023-03-21T13:01:39.113Z,3.08
2023-03-21T13:04:28.217Z,3.65
2023-03-21T13:06:57.208Z,4.93
2023-03-21T13:09:37.930Z,7.47
2023-03-21T13:13:00.610Z,4.80
2023-03-21T13:16:04.534Z,3.30
2023-03-21T13:18:51.654Z,3.13
2023-03-21T13:21:25.924Z,2.95
2023-03-21T13:24:18.768Z,2.90
2023-03-21T13:26:49.980Z,10.68
2023-03-21T13:29:26.498Z,31.17
2023-03-21T13:31:57.389Z,3.30
2023-03-21T13:34:25.368Z,2.28
2023-03-21T13:36:52.624Z,2.60
2023-03-21T13:39:25.556Z,2.72
2023-03-21T13:41:54.563Z,2.80
2023-03-21T13:44:32.359Z,2.80
2023-03-21T13:47:04.820Z,2.47
2023-03-21T13:49:37.977Z,2.58
2023-03-21T13:52:28.125Z,3.00
2023-03-21T13:54:56.305Z,2.30
2023-03-21T13:57:30.347Z,2.20
2023-03-21T14:00:17.565Z,2.30
2023-03-21T14:02:55.814Z,2.00
2023-03-21T14:05:23.861Z,2.15
2023-03-21T14:07:59.400Z,2.13
2023-03-21T14:10:42.097Z,2.30
2023-03-21T14:13:10.792Z,2.50
2023-03-21T14:15:49.757Z,2.22
2023-03-21T14:18:28.445Z,3.28
2023-03-21T14:21:02.361Z,2.63
2023-03-21T14:23:29.942Z,3.08
2023-03-21T14:25:56.501Z,2.70
2023-03-21T14:28:25.948Z,2.63
2023-03-21T14:30:56.495Z,2.40
2023-03-21T14:33:31.848Z,2.38
2023-03-21T14:36:02.909Z,2.20
2023-03-21T14:38:35.627Z,2.42
2023-03-21T14:41:02.307Z,2.30
2023-03-21T14:43:28.860Z,2.40
2023-03-21T14:45:56.911Z,3.00
2023-03-21T14:48:32.723Z,7.75
2023-03-21T14:51:04.617Z,6.95
2023-03-21T14:53:38.488Z,4.25
2023-03-21T14:56:08.323Z,3.10
2023-03-21T14:58:39.292Z,2.50
2023-03-21T15:01:07.382Z,3.10
2023-03-21T15:03:37.471Z,2.72
2023-03-21T15:06:04.579Z,3.17
2023-03-21T15:08:31.136Z,2.58
2023-03-21T15:11:07.532Z,2.72
2023-03-21T15:13:46.011Z,2.20
2023-03-21T15:16:14.933Z,2.25
2023-03-21T15:18:43.999Z,2.40
2023-03-21T15:21:34.908Z,2.22
2023-03-21T15:24:13.886Z,2.33
2023-03-21T15:26:44.002Z,2.30
2023-03-21T15:29:11.907Z,2.38
2023-03-21T15:31:40.503Z,6.90
2023-03-21T15:34:07.462Z,4.45
2023-03-21T15:36:37.624Z,4.15
2023-03-21T15:39:06.520Z,4.10
2023-03-21T15:41:33.568Z,4.55
2023-03-21T15:44:09.065Z,4.60
2023-03-21T15:46:46.617Z,2.53
2023-03-21T15:49:15.137Z,2.40
2023-03-21T15:51:46.644Z,2.65
2023-03-21T15:54:29.951Z,2.30
2023-03-21T15:57:09.452Z,2.55
2023-03-21T15:59:41.426Z,2.33
2023-03-21T16:02:19.362Z,2.30
2023-03-21T16:04:59.984Z,2.30
2023-03-21T16:07:27.527Z,2.67
2023-03-21T16:10:04.694Z,2.60
2023-03-21T16:12:31.346Z,2.70
2023-03-21T16:14:57.824Z,2.63
2023-03-21T16:17:39.725Z,2.67
2023-03-21T16:20:24.370Z,2.33
2023-03-21T16:22:51.140Z,2.60
2023-03-21T16:25:21.357Z,2.92
2023-03-21T16:27:51.689Z,2.53
2023-03-21T16:30:21.487Z,2.50
2023-03-21T16:32:50.124Z,25.83
2023-03-21T16:35:22.385Z,22.20
2023-03-21T16:37:50.213Z,8.85
2023-03-21T16:40:31.692Z,4.90
2023-03-21T16:45:25.082Z,3.50
2023-03-21T16:47:55.558Z,3.15
2023-03-21T16:50:37.732Z,2.80
2023-03-21T16:53:04.687Z,2.90
2023-03-21T16:55:35.291Z,2.90
2023-03-21T16:58:01.863Z,3.22
2023-03-21T17:00:30.834Z,3.00
2023-03-21T17:03:01.757Z,2.83
2023-03-21T17:05:32.781Z,2.70
2023-03-21T17:08:02.137Z,2.72
2023-03-21T17:10:30.786Z,3.47
2023-03-21T17:12:57.334Z,3.78
2023-03-21T17:15:23.734Z,3.50
2023-03-21T17:17:50.309Z,4.78
2023-03-21T17:20:23.575Z,4.60
2023-03-21T17:22:50.277Z,4.03
2023-03-21T17:25:17.843Z,4.78
2023-03-21T17:27:44.750Z,4.90
2023-03-21T17:30:25.271Z,4.18
2023-03-21T17:32:53.410Z,4.30
2023-03-21T17:35:21.832Z,3.83
2023-03-21T17:37:51.172Z,4.20
2023-03-21T17:40:26.942Z,3.25
2023-03-21T17:42:53.939Z,3.45
2023-03-21T17:45:21.784Z,3.30
2023-03-21T17:47:48.514Z,13.23
2023-03-21T17:50:19.578Z,19.17
2023-03-21T17:52:48.992Z,8.93
2023-03-21T17:55:21.174Z,3.90
2023-03-21T17:57:48.863Z,3.60
2023-03-21T18:00:27.634Z,3.88
2023-03-21T18:02:54.097Z,3.83
2023-03-21T18:05:21.525Z,5.65
2023-03-21T18:10:35.074Z,5.05
2023-03-21T18:13:01.423Z,4.90
2023-03-21T18:15:30.557Z,4.90
2023-03-21T18:17:57.343Z,4.78
2023-03-21T18:20:44.632Z,5.47
2023-03-21T18:23:13.997Z,4.82
2023-03-21T18:25:41.705Z,6.28
2023-03-21T18:28:11.894Z,5.53
2023-03-21T18:31:00.332Z,4.50
2023-03-21T18:33:27.201Z,4.80
2023-03-21T18:35:58.709Z,4.82
2023-03-21T18:38:26.345Z,4.75
2023-03-21T18:40:52.713Z,6.00
2023-03-21T18:46:06.293Z,5.22
2023-03-21T18:48:34.147Z,5.50
2023-03-21T18:51:00.911Z,7.47
2023-03-21T18:53:27.830Z,6.65
2023-03-21T18:55:54.353Z,6.60
2023-03-21T18:58:21.292Z,28.50
2023-03-21T19:00:49.711Z,13.82
2023-03-21T19:03:30.130Z,9.57
2023-03-21T19:06:00.683Z,8.30
2023-03-21T19:08:27.174Z,6.57
2023-03-21T19:10:53.839Z,6.50
2023-03-21T19:13:20.624Z,5.80
2023-03-21T19:15:49.550Z,9.35
2023-03-21T19:21:03.472Z,14.18
2023-03-21T19:23:40.949Z,9.52
2023-03-21T19:26:16.271Z,7.65
2023-03-21T19:28:42.617Z,8.82
2023-03-21T19:31:09.336Z,10.70
2023-03-21T19:33:35.692Z,7.95
2023-03-21T19:36:15.225Z,7.50
2023-03-21T19:38:44.908Z,7.22
2023-03-21T19:41:11.288Z,6.93
2023-03-21T19:43:39.997Z,8.48
2023-03-21T19:46:08.086Z,8.00
2023-03-21T19:48:34.650Z,10.13
2023-03-21T19:51:26.964Z,8.23
2023-03-21T19:53:48.933Z,9.32
2023-03-21T19:56:22.294Z,8.45
2023-03-21T19:58:50.455Z,7.80
2023-03-21T20:01:16.847Z,8.13
2023-03-21T20:03:44.335Z,8.02
2023-03-21T20:06:11.652Z,7.50
2023-03-21T20:09:05.383Z,7.80
2023-03-21T20:11:24.375Z,7.00
2023-03-21T20:13:50.826Z,6.70
2023-03-21T20:16:18.409Z,6.32
2023-03-21T20:18:45.911Z,5.72
2023-03-21T20:21:17.631Z,5.45
2023-03-21T20:23:49.039Z,5.97
2023-03-21T20:26:15.738Z,4.63
2023-03-21T20:28:55.882Z,5.40
2023-03-21T20:31:26.068Z,4.85
2023-03-21T20:33:52.459Z,4.25
2023-03-21T20:39:07.296Z,4.10
2023-03-21T20:41:33.708Z,4.80
2023-03-21T20:46:49.539Z,5.07
2023-03-21T20:49:16.022Z,5.40
2023-03-21T20:54:29.718Z,5.75
2023-03-21T20:56:57.131Z,5.95
2023-03-21T20:59:27.594Z,5.30
2023-03-21T21:01:55.867Z,4.80
2023-03-21T21:04:34.301Z,4.72
2023-03-21T21:07:12.503Z,4.88
2023-03-21T21:09:39.943Z,5.32
2023-03-21T21:12:08.292Z,4.68
2023-03-21T21:14:38.097Z,4.80
2023-03-21T21:19:51.468Z,5.00
2023-03-21T21:22:18.883Z,4.72
2023-03-21T21:24:45.253Z,5.18
2023-03-21T21:27:11.976Z,5.57
2023-03-21T21:29:38.604Z,5.20
2023-03-21T21:32:05.344Z,5.03
2023-03-21T21:34:31.871Z,5.07
2023-03-21T21:36:58.447Z,4.85
2023-03-21T21:39:26.418Z,5.20
2023-03-21T21:41:52.855Z,5.50
2023-03-21T21:44:19.608Z,4.70
2023-03-21T21:46:46.251Z,5.03
2023-03-21T21:49:12.624Z,4.40
2023-03-21T21:51:41.069Z,4.40
2023-03-21T21:54:07.408Z,4.10
2023-03-21T21:56:33.780Z,4.50
2023-03-21T21:59:03.095Z,4.50
2023-03-21T22:04:05.944Z,4.70
2023-03-21T22:08:59.446Z,5.15
2023-03-21T22:11:25.855Z,4.95
2023-03-21T22:13:52.262Z,5.38
2023-03-21T22:16:18.890Z,5.05
2023-03-21T22:18:45.300Z,5.32
2023-03-21T22:21:11.644Z,4.90
2023-03-21T22:23:37.984Z,5.13
2023-03-21T22:26:04.533Z,4.80
2023-03-21T22:28:30.931Z,4.60
2023-03-21T22:30:57.366Z,4.35
2023-03-21T22:33:23.733Z,4.50
2023-03-21T22:35:51.634Z,4.78
2023-03-21T22:38:24.133Z,4.43
2023-03-21T22:40:58.328Z,4.40
2023-03-21T22:43:25.359Z,4.38
2023-03-21T22:45:52.663Z,4.70
2023-03-21T22:48:19.597Z,7.05
2023-03-21T22:50:46.148Z,4.60
2023-03-21T22:53:12.573Z,4.60
2023-03-21T22:55:39.467Z,4.70
2023-03-21T22:58:06.423Z,4.15
2023-03-21T23:00:32.803Z,4.07
2023-03-21T23:02:59.811Z,4.18
2023-03-21T23:05:26.654Z,3.80
2023-03-21T23:07:53.147Z,4.15
2023-03-21T23:10:19.705Z,4.20
2023-03-21T23:12:46.116Z,4.10
2023-03-21T23:15:12.548Z,4.35
2023-03-21T23:17:38.907Z,4.05
2023-03-21T23:20:08.119Z,4.20
2023-03-21T23:25:02.443Z,4.40
2023-03-21T23:27:29.158Z,4.22
2023-03-21T23:29:56.543Z,4.53
2023-03-21T23:32:23.786Z,4.20
2023-03-21T23:34:50.217Z,4.75
2023-03-21T23:37:16.601Z,4.93
2023-03-21T23:39:45.191Z,4.85
2023-03-21T23:42:11.666Z,4.82
2023-03-21T23:44:38.011Z,5.40
2023-03-21T23:47:04.442Z,5.63
2023-03-21T23:49:33.577Z,5.38
2023-03-21T23:52:00.168Z,5.40
2023-03-21T23:54:26.566Z,5.63
2023-03-21T23:56:52.977Z,5.82
2023-03-21T23:59:19.325Z,5.97
